Time;durP1;ratioP1;P1;durP2;ratioP2;P2;SDS_P1;SDS_P2;PMS_P1;PMS_P2;Temp;Humidity;BMP_temperature;BMP_pressure;BME280_temperature;BME280_humidity;BME280_pressure;Samples;Min_cycle;Max_cycle;Signal;HPM_P1;HPM_P2
2022/05/08 00:01:19;;;;;;;5.25;3.72;;;13.00;99.90;;;;;;5044785;28;20073;-58
2022/05/08 00:03:46;;;;;;;5.32;3.63;;;13.00;99.90;;;;;;5049790;28;20528;-59
2022/05/08 00:06:12;;;;;;;5.15;3.10;;;12.90;99.90;;;;;;5050568;28;20053;-59
2022/05/08 00:08:39;;;;;;;5.80;3.42;;;12.90;99.90;;;;;;5049960;28;20079;-58
2022/05/08 00:11:06;;;;;;;3.72;2.63;;;12.90;99.90;;;;;;5050775;28;20041;-58
2022/05/08 00:13:35;;;;;;;6.72;2.85;;;12.90;99.90;;;;;;5051165;28;20049;-58
2022/05/08 00:16:02;;;;;;;5.82;2.70;;;12.80;99.90;;;;;;5050188;28;20048;-59
2022/05/08 00:18:29;;;;;;;6.55;3.05;;;12.80;99.90;;;;;;5050926;28;20489;-57
2022/05/08 00:20:56;;;;;;;6.00;2.88;;;12.80;99.90;;;;;;5050578;28;20147;-59
2022/05/08 00:23:23;;;;;;;7.72;2.67;;;12.80;99.90;;;;;;5049430;28;20519;-59
2022/05/08 00:25:49;;;;;;;8.10;3.28;;;12.80;99.90;;;;;;5049882;28;20144;-60
2022/05/08 00:28:16;;;;;;;11.15;3.88;;;12.90;99.90;;;;;;5050466;28;20160;-59
2022/05/08 00:30:43;;;;;;;6.45;3.38;;;12.90;99.90;;;;;;5050348;28;20080;-60
2022/05/08 00:33:10;;;;;;;6.10;3.50;;;12.80;99.90;;;;;;5048666;28;20090;-60
2022/05/08 00:35:36;;;;;;;7.75;3.25;;;12.80;99.90;;;;;;5049437;28;20488;-56
2022/05/08 00:38:04;;;;;;;7.43;3.15;;;12.70;99.90;;;;;;4721912;27;10001354;-58
2022/05/08 00:40:35;;;;;;;5.07;3.35;;;12.70;99.90;;;;;;5048718;28;20688;-57
2022/05/08 00:43:38;;;;;;;7.78;3.55;;;12.60;99.90;;;;;;5049826;28;20049;-58
2022/05/08 00:46:12;;;;;;;7.78;4.03;;;12.50;99.90;;;;;;5050027;28;20147;-58
2022/05/08 00:48:39;;;;;;;;;;;12.50;99.90;;;;;;5050446;28;20040;-55
2022/05/08 00:51:10;;;;;;;6.00;2.97;;;12.40;99.90;;;;;;5050459;28;19927;-57
2022/05/08 00:53:41;;;;;;;11.30;3.10;;;12.40;99.90;;;;;;5049390;28;20053;-56
2022/05/08 00:56:09;;;;;;;6.97;3.50;;;12.40;99.90;;;;;;5048617;28;20144;-58
2022/05/08 00:58:37;;;;;;;10.88;3.55;;;12.40;99.90;;;;;;5049225;28;20088;-58
2022/05/08 01:01:04;;;;;;;5.45;3.58;;;12.40;99.90;;;;;;5046441;28;20127;-58
2022/05/08 01:03:31;;;;;;;6.78;3.20;;;12.20;99.90;;;;;;5049540;28;20057;-58
2022/05/08 01:05:59;;;;;;;7.78;3.70;;;12.20;99.90;;;;;;5049963;28;20175;-58
2022/05/08 01:08:26;;;;;;;9.32;3.80;;;12.10;99.90;;;;;;5047806;28;20048;-57
2022/05/08 01:10:54;;;;;;;9.50;3.72;;;12.10;99.90;;;;;;5049797;28;20143;-58
2022/05/08 01:13:20;;;;;;;9.90;3.67;;;12.00;99.90;;;;;;5048006;28;20080;-57
2022/05/08 01:15:48;;;;;;;12.63;3.40;;;12.00;99.90;;;;;;5049399;28;20053;-56
2022/05/08 01:18:16;;;;;;;7.30;4.15;;;12.00;99.90;;;;;;5049328;28;20106;-59
2022/05/08 01:20:44;;;;;;;12.15;4.35;;;12.00;99.90;;;;;;5049812;28;20049;-56
2022/05/08 01:23:11;;;;;;;6.25;3.42;;;11.90;99.90;;;;;;5049218;28;20080;-57
2022/05/08 01:25:51;;;;;;;8.20;3.45;;;11.90;99.90;;;;;;5047820;28;20045;-56
2022/05/08 01:28:18;;;;;;;9.43;3.38;;;11.90;99.90;;;;;;5035483;28;20151;-59
2022/05/08 01:30:46;;;;;;;8.13;3.72;;;11.90;99.90;;;;;;5049088;28;20232;-56
2022/05/08 01:33:13;;;;;;;9.90;3.35;;;11.90;99.90;;;;;;5048252;28;20551;-56
2022/05/08 01:35:41;;;;;;;7.80;3.35;;;11.90;99.90;;;;;;5049167;28;20128;-58
2022/05/08 01:38:08;;;;;;;7.72;3.50;;;11.90;99.90;;;;;;5048839;28;20135;-57
2022/05/08 01:40:35;;;;;;;7.20;3.13;;;11.80;99.90;;;;;;5049402;28;20075;-58
2022/05/08 01:43:02;;;;;;;10.90;3.90;;;11.80;99.90;;;;;;5049078;28;20215;-58
2022/05/08 01:45:28;;;;;;;8.57;3.90;;;11.70;99.90;;;;;;5048378;28;20144;-58
2022/05/08 01:50:41;;;;;;;10.10;3.53;;;11.80;99.90;;;;;;5048181;28;20474;-59
2022/05/08 01:53:08;;;;;;;8.55;3.53;;;11.70;99.90;;;;;;5048854;28;20080;-58
2022/05/08 01:55:35;;;;;;;6.40;3.67;;;11.70;99.90;;;;;;5048538;28;20045;-55
2022/05/08 01:58:04;;;;;;;10.70;4.25;;;11.70;99.90;;;;;;5048846;28;20081;-58
2022/05/08 02:00:31;;;;;;;10.15;3.75;;;11.70;99.90;;;;;;5048118;28;20570;-58
2022/05/08 02:03:00;;;;;;;9.10;3.65;;;11.70;99.90;;;;;;5047318;28;20057;-59
2022/05/08 02:05:28;;;;;;;8.35;3.90;;;11.60;99.90;;;;;;5048076;28;20080;-58
2022/05/08 02:07:55;;;;;;;9.45;4.22;;;11.60;99.90;;;;;;5047562;28;20061;-57
2022/05/08 02:10:22;;;;;;;8.48;3.85;;;11.50;99.90;;;;;;5048134;28;20049;-57
2022/05/08 02:12:49;;;;;;;7.55;2.85;;;11.60;99.90;;;;;;5048405;28;20052;-58
2022/05/08 02:15:16;;;;;;;5.57;3.20;;;11.60;99.90;;;;;;5046547;28;20076;-58
2022/05/08 02:17:43;;;;;;;12.35;6.00;;;11.60;99.90;;;;;;5048362;28;20488;-60
2022/05/08 02:20:11;;;;;;;9.80;4.43;;;11.60;99.90;;;;;;5048164;28;20044;-58
2022/05/08 02:22:37;;;;;;;7.97;4.95;;;11.50;99.90;;;;;;5048180;28;20049;-59
2022/05/08 02:25:05;;;;;;;9.60;4.35;;;11.60;99.90;;;;;;5043636;28;20515;-58
2022/05/08 02:27:39;;;;;;;13.38;4.53;;;11.60;99.90;;;;;;5046686;28;20068;-57
2022/05/08 02:30:07;;;;;;;10.27;4.13;;;11.70;99.90;;;;;;5047597;28;20139;-58
2022/05/08 02:32:34;;;;;;;12.38;3.90;;;11.70;99.90;;;;;;5047919;28;20065;-59
2022/05/08 02:35:01;;;;;;;10.57;4.00;;;11.70;99.90;;;;;;5047891;28;20603;-58
2022/05/08 02:37:27;;;;;;;14.63;5.05;;;11.70;99.90;;;;;;5047886;28;20123;-59
2022/05/08 02:39:54;;;;;;;10.57;4.57;;;11.70;99.90;;;;;;5047874;28;20095;-58
2022/05/08 02:42:21;;;;;;;9.50;4.40;;;11.80;99.90;;;;;;5047800;28;20136;-58
2022/05/08 02:44:48;;;;;;;8.00;4.25;;;11.70;99.90;;;;;;5047839;28;20136;-59
2022/05/08 02:47:14;;;;;;;11.50;4.63;;;11.80;99.90;;;;;;5047816;28;20080;-58
2022/05/08 02:49:41;;;;;;;13.35;4.57;;;11.80;99.90;;;;;;5048090;28;20128;-58
2022/05/08 02:52:08;;;;;;;9.20;4.70;;;11.80;99.90;;;;;;5047744;28;20141;-58
2022/05/08 02:54:35;;;;;;;8.98;4.65;;;11.70;99.90;;;;;;5047476;28;20135;-57
2022/05/08 02:59:46;;;;;;;8.40;5.05;;;11.70;99.90;;;;;;5047017;28;20045;-59
2022/05/08 03:02:13;;;;;;;10.32;4.72;;;11.70;99.90;;;;;;5047642;28;20130;-59
2022/05/08 03:04:41;;;;;;;15.50;5.03;;;11.70;99.90;;;;;;5047538;28;20186;-58
2022/05/08 03:07:08;;;;;;;9.38;4.53;;;11.70;99.90;;;;;;5047145;28;20049;-58
2022/05/08 03:09:35;;;;;;;10.20;4.47;;;11.70;99.90;;;;;;5047719;28;20127;-59
2022/05/08 03:12:01;;;;;;;8.98;4.93;;;11.70;99.90;;;;;;5047227;28;20079;-58
2022/05/08 03:14:28;;;;;;;10.50;4.50;;;11.70;99.90;;;;;;5047529;28;20076;-58
2022/05/08 03:16:55;;;;;;;14.30;5.57;;;11.70;99.90;;;;;;5047114;28;20148;-58
2022/05/08 03:19:22;;;;;;;11.20;5.90;;;11.70;99.90;;;;;;5046925;28;20049;-58
2022/05/08 03:21:51;;;;;;;14.52;5.43;;;11.70;99.90;;;;;;5047202;28;20277;-57
2022/05/08 03:24:18;;;;;;;11.70;5.75;;;11.70;99.90;;;;;;5046926;28;20052;-59
2022/05/08 03:26:45;;;;;;;12.13;5.25;;;11.60;99.90;;;;;;5046238;28;20156;-58
2022/05/08 03:29:11;;;;;;;10.52;6.10;;;11.60;99.90;;;;;;5047600;28;20077;-59
2022/05/08 03:31:39;;;;;;;11.00;6.03;;;11.60;99.90;;;;;;5047531;28;20559;-54
2022/05/08 03:34:06;;;;;;;7.82;5.18;;;11.60;99.90;;;;;;5047113;28;20048;-58
2022/05/08 03:36:33;;;;;;;11.32;6.05;;;11.60;99.90;;;;;;5047364;28;20083;-58
2022/05/08 03:38:59;;;;;;;12.90;5.40;;;11.60;99.90;;;;;;5046807;28;20157;-58
2022/05/08 03:41:26;;;;;;;9.35;4.50;;;11.60;99.90;;;;;;5046368;28;20072;-57
2022/05/08 03:43:53;;;;;;;8.55;4.97;;;11.40;99.90;;;;;;5046883;28;20049;-58
2022/05/08 03:46:20;;;;;;;10.07;4.93;;;11.40;99.90;;;;;;5047376;28;20490;-58
2022/05/08 03:48:47;;;;;;;10.00;5.15;;;11.50;99.90;;;;;;5046681;28;20049;-58
2022/05/08 03:51:14;;;;;;;10.45;4.90;;;11.50;99.90;;;;;;5047408;28;20060;-58
2022/05/08 03:53:42;;;;;;;8.23;5.03;;;11.50;99.90;;;;;;5046390;28;20068;-58
2022/05/08 03:56:09;;;;;;;9.38;4.35;;;11.50;99.90;;;;;;5047086;28;20139;-58
2022/05/08 03:58:35;;;;;;;8.57;4.95;;;11.50;99.90;;;;;;5046792;28;20473;-57
2022/05/08 04:01:02;;;;;;;8.93;4.40;;;11.50;99.90;;;;;;5047184;28;20132;-58
2022/05/08 04:03:29;;;;;;;11.10;4.80;;;11.50;99.90;;;;;;5042477;28;20125;-58
2022/05/08 04:05:55;;;;;;;10.13;4.32;;;11.50;99.90;;;;;;5046468;28;20045;-58
2022/05/08 04:08:22;;;;;;;10.82;4.97;;;11.50;99.90;;;;;;5046657;28;20131;-55
2022/05/08 04:10:49;;;;;;;11.40;6.55;;;11.50;99.90;;;;;;5047323;28;20095;-57
2022/05/08 04:13:15;;;;;;;13.20;7.63;;;11.50;99.90;;;;;;5050819;28;20085;-58
2022/05/08 04:18:27;;;;;;;16.63;6.30;;;11.50;99.90;;;;;;5050233;28;20076;-57
2022/05/08 04:20:54;;;;;;;16.33;6.47;;;11.50;99.90;;;;;;5050316;28;20575;-56
2022/05/08 04:26:08;;;;;;;10.95;5.13;;;11.60;99.90;;;;;;5043891;28;20551;-58
2022/05/08 04:28:34;;;;;;;9.90;5.15;;;11.60;99.90;;;;;;5049033;28;20067;-56
2022/05/08 04:31:01;;;;;;;9.60;4.50;;;11.50;99.90;;;;;;5049235;28;20064;-58
2022/05/08 04:33:28;;;;;;;7.18;4.30;;;11.50;99.90;;;;;;5050333;28;20110;-58
2022/05/08 04:35:55;;;;;;;10.45;4.75;;;11.60;99.90;;;;;;5048327;28;20114;-58
2022/05/08 04:38:21;;;;;;;8.63;3.83;;;11.60;99.90;;;;;;5049718;28;20041;-57
2022/05/08 04:40:48;;;;;;;5.72;3.35;;;11.50;99.90;;;;;;5049476;28;20318;-57
2022/05/08 04:43:15;;;;;;;9.75;4.43;;;11.40;99.90;;;;;;5049980;28;20132;-57
2022/05/08 04:45:41;;;;;;;6.68;4.03;;;11.40;99.90;;;;;;5049374;28;20141;-58
2022/05/08 04:48:09;;;;;;;10.23;4.75;;;11.40;99.90;;;;;;5050109;28;20132;-58
2022/05/08 04:50:36;;;;;;;8.55;4.22;;;11.50;99.90;;;;;;5049735;28;20132;-58
2022/05/08 04:53:02;;;;;;;13.75;6.13;;;11.50;99.90;;;;;;5050271;28;20079;-59
2022/05/08 04:55:29;;;;;;;8.88;4.50;;;11.50;99.90;;;;;;5049527;28;20151;-56
2022/05/08 04:57:56;;;;;;;12.50;4.28;;;11.50;99.90;;;;;;5049893;28;20055;-58
2022/05/08 05:00:22;;;;;;;8.48;4.75;;;11.60;99.90;;;;;;5049467;28;20130;-57
2022/05/08 05:02:49;;;;;;;14.25;4.85;;;11.50;99.90;;;;;;5049756;28;20083;-57
2022/05/08 05:05:16;;;;;;;8.13;6.53;;;11.50;99.90;;;;;;5049347;28;20084;-58
2022/05/08 05:07:43;;;;;;;11.30;5.38;;;11.60;99.90;;;;;;5049810;28;20202;-58
2022/05/08 05:10:10;;;;;;;9.82;3.92;;;11.60;99.90;;;;;;5049461;28;20132;-58
2022/05/08 05:12:38;;;;;;;7.68;4.22;;;11.50;99.90;;;;;;5049565;28;20085;-59
2022/05/08 05:15:08;;;;;;;9.13;4.68;;;11.50;99.90;;;;;;5048082;28;20049;-58
2022/05/08 05:17:35;;;;;;;8.07;4.18;;;11.50;99.90;;;;;;5049301;28;20132;-57
2022/05/08 05:20:03;;;;;;;9.52;4.60;;;11.60;99.90;;;;;;5049568;28;20052;-59
2022/05/08 05:22:30;;;;;;;9.68;4.18;;;11.50;99.90;;;;;;5048403;28;20048;-59
2022/05/08 05:24:57;;;;;;;9.43;4.80;;;11.50;99.90;;;;;;5049277;28;20041;-58
2022/05/08 05:27:24;;;;;;;9.00;4.78;;;11.60;99.90;;;;;;5048930;28;20152;-58
2022/05/08 05:29:51;;;;;;;11.68;4.53;;;11.70;99.90;;;;;;5049040;28;20618;-59
2022/05/08 05:32:18;;;;;;;11.45;4.80;;;11.60;99.90;;;;;;5049201;28;20073;-58
2022/05/08 05:34:44;;;;;;;10.82;4.85;;;11.70;99.90;;;;;;5049076;28;20045;-56
2022/05/08 05:37:11;;;;;;;11.63;5.15;;;11.70;99.90;;;;;;5049092;28;20076;-58
2022/05/08 05:39:38;;;;;;;11.25;4.53;;;11.70;99.90;;;;;;5049062;28;20080;-58
2022/05/08 05:42:05;;;;;;;10.13;4.50;;;11.70;99.90;;;;;;5048879;28;20075;-58
2022/05/08 05:44:32;;;;;;;12.00;5.20;;;11.60;99.90;;;;;;5049117;28;20508;-58
2022/05/08 05:49:43;;;;;;;13.05;5.93;;;11.60;99.90;;;;;;5048743;28;20128;-58
2022/05/08 05:52:10;;;;;;;11.60;5.38;;;11.70;99.90;;;;;;5048649;28;20155;-58
2022/05/08 05:54:37;;;;;;;16.00;6.47;;;11.60;99.90;;;;;;5048646;28;20143;-57
2022/05/08 05:57:04;;;;;;;16.98;6.78;;;11.60;99.90;;;;;;5048615;28;20045;-57
2022/05/08 05:59:30;;;;;;;18.45;7.38;;;11.60;99.90;;;;;;5048839;28;20056;-59
2022/05/08 06:02:05;;;;;;;26.77;7.32;;;11.60;99.90;;;;;;5048566;28;20059;-56
2022/05/08 06:04:32;;;;;;;18.02;7.38;;;11.60;99.90;;;;;;5048222;28;20057;-57
2022/05/08 06:06:59;;;;;;;16.77;7.30;;;11.50;99.90;;;;;;5048346;28;20057;-58
2022/05/08 06:09:26;;;;;;;13.35;6.85;;;11.50;99.90;;;;;;5047732;28;20080;-59
2022/05/08 06:11:53;;;;;;;18.10;8.07;;;11.50;99.90;;;;;;5047402;28;20080;-58
2022/05/08 06:14:20;;;;;;;12.93;5.78;;;11.50;99.90;;;;;;5047416;28;20083;-59
2022/05/08 06:16:47;;;;;;;14.35;6.32;;;11.50;99.90;;;;;;5046621;28;20057;-58
2022/05/08 06:19:14;;;;;;;10.35;5.10;;;11.50;99.90;;;;;;5047165;28;20045;-58
2022/05/08 06:21:40;;;;;;;10.80;5.28;;;11.40;99.90;;;;;;5047306;28;20076;-58
2022/05/08 06:24:07;;;;;;;11.32;5.60;;;11.40;99.90;;;;;;5047704;28;20115;-58
2022/05/08 06:26:34;;;;;;;11.50;5.80;;;11.40;99.90;;;;;;5047163;28;20087;-58
2022/05/08 06:29:01;;;;;;;12.45;4.28;;;11.50;99.90;;;;;;5047272;28;20146;-57
2022/05/08 06:31:28;;;;;;;17.13;5.47;;;11.50;99.90;;;;;;5047703;28;20087;-57
2022/05/08 06:33:55;;;;;;;15.25;5.63;;;11.50;99.90;;;;;;5045198;28;20045;-57
2022/05/08 06:36:22;;;;;;;21.05;7.95;;;11.60;99.90;;;;;;5047464;28;20099;-58
2022/05/08 06:38:48;;;;;;;18.05;4.90;;;11.50;99.90;;;;;;5047037;28;20048;-58
2022/05/08 06:41:15;;;;;;;17.20;4.00;;;11.60;99.90;;;;;;5047429;28;20137;-57
2022/05/08 06:43:42;;;;;;;10.95;3.95;;;11.60;99.90;;;;;;5046844;28;20650;-59
2022/05/08 06:46:09;;;;;;;14.55;5.15;;;11.60;99.90;;;;;;5047340;28;20546;-58
2022/05/08 06:48:35;;;;;;;11.15;3.90;;;11.70;99.90;;;;;;5047085;28;20049;-57
2022/05/08 06:51:03;;;;;;;15.65;3.67;;;11.70;99.90;;;;;;5047283;28;20081;-57
2022/05/08 06:53:30;;;;;;;12.27;3.50;;;11.80;99.90;;;;;;5047071;28;20105;-60
2022/05/08 06:55:57;;;;;;;16.23;4.00;;;11.80;99.90;;;;;;5046809;28;20111;-58
2022/05/08 06:58:24;;;;;;;25.65;5.88;;;11.90;99.90;;;;;;5039294;28;20136;-58
2022/05/08 07:03:37;;;;;;;14.23;4.00;;;11.80;99.90;;;;;;5039900;28;20057;-58
2022/05/08 07:06:04;;;;;;;20.25;4.40;;;11.80;99.90;;;;;;5045225;28;20136;-58
2022/05/08 07:08:30;;;;;;;21.23;4.78;;;11.80;99.90;;;;;;5047690;28;20087;-58
2022/05/08 07:10:57;;;;;;;17.05;4.65;;;11.80;99.90;;;;;;5046584;28;20127;-59
2022/05/08 07:13:26;;;;;;;16.42;3.90;;;11.70;99.90;;;;;;5046491;28;20231;-58
2022/05/08 07:15:53;;;;;;;17.33;3.15;;;11.70;99.90;;;;;;5046256;28;20053;-56
2022/05/08 07:18:26;;;;;;;15.60;3.22;;;11.70;99.90;;;;;;5043256;28;20052;-58
2022/05/08 07:20:52;;;;;;;14.57;4.00;;;11.80;99.90;;;;;;5046476;28;20083;-57
2022/05/08 07:23:19;;;;;;;15.13;3.65;;;11.80;99.90;;;;;;5046665;28;20098;-58
2022/05/08 07:25:46;;;;;;;25.77;4.80;;;11.80;99.90;;;;;;5045858;28;20069;-58
2022/05/08 07:28:13;;;;;;;20.52;6.10;;;11.80;99.90;;;;;;5046495;28;20558;-57
2022/05/08 07:30:39;;;;;;;19.00;3.47;;;11.80;99.90;;;;;;5046303;28;20141;-57
2022/05/08 07:33:06;;;;;;;18.75;4.70;;;11.80;99.90;;;;;;5046784;28;20049;-59
2022/05/08 07:38:25;;;;;;;16.85;3.67;;;11.90;99.90;;;;;;5046304;28;20415;-59
2022/05/08 07:40:58;;;;;;;12.40;3.05;;;11.90;99.90;;;;;;5044037;28;20102;-59
2022/05/08 07:43:25;;;;;;;14.93;3.33;;;12.00;99.90;;;;;;5046309;28;20163;-57
2022/05/08 07:45:52;;;;;;;18.90;4.45;;;12.00;99.90;;;;;;5047929;28;20118;-59
2022/05/08 07:48:19;;;;;;;10.55;2.75;;;12.10;99.90;;;;;;5050459;28;20114;-57
2022/05/08 07:50:46;;;;;;;18.58;4.10;;;12.20;99.90;;;;;;5050224;28;20045;-57
2022/05/08 07:53:19;;;;;;;15.93;4.00;;;12.20;99.90;;;;;;5049872;28;20080;-57
2022/05/08 07:55:51;;;;;;;12.65;3.50;;;12.20;99.90;;;;;;5047851;28;20051;-58
2022/05/08 07:58:20;;;;;;;20.57;3.30;;;12.30;99.90;;;;;;5049688;28;20385;-57
2022/05/08 08:00:46;;;;;;;13.70;3.10;;;12.30;99.90;;;;;;5048661;28;20049;-58
2022/05/08 08:03:13;;;;;;;13.63;3.67;;;12.30;99.90;;;;;;5048822;28;20041;-59
2022/05/08 08:05:40;;;;;;;25.75;5.43;;;12.40;99.90;;;;;;5050044;28;20080;-58
2022/05/08 08:08:27;;;;;;;19.85;3.38;;;12.50;99.90;;;;;;5047475;28;20049;-58
2022/05/08 08:10:56;;;;;;;19.50;5.15;;;12.50;99.90;;;;;;5050272;28;20136;-59
2022/05/08 08:13:24;;;;;;;12.30;4.00;;;12.50;99.90;;;;;;5047669;28;20081;-58
2022/05/08 08:15:50;;;;;;;19.30;3.85;;;12.50;99.90;;;;;;5049807;28;20140;-58
2022/05/08 08:18:18;;;;;;;18.80;3.95;;;12.40;99.90;;;;;;5049431;28;20051;-58
2022/05/08 08:20:45;;;;;;;14.95;2.90;;;12.50;99.90;;;;;;5048098;28;20041;-60
2022/05/08 08:23:12;;;;;;;15.65;5.07;;;12.50;99.90;;;;;;5049540;28;20095;-62
2022/05/08 08:25:39;;;;;;;24.38;6.47;;;12.50;99.90;;;;;;5049289;28;20081;-58
2022/05/08 08:28:06;;;;;;;22.83;4.03;;;12.60;99.90;;;;;;5048414;28;20080;-58
2022/05/08 08:30:33;;;;;;;21.02;3.47;;;12.60;99.90;;;;;;5048727;28;20128;-59
2022/05/08 08:33:00;;;;;;;22.23;4.63;;;12.70;99.90;;;;;;5048021;28;20092;-59
2022/05/08 08:35:27;;;;;;;16.58;3.00;;;12.70;99.90;;;;;;5048168;28;20120;-57
2022/05/08 08:37:54;;;;;;;14.90;3.85;;;12.80;99.90;;;;;;5048895;28;20094;-59
2022/05/08 08:40:21;;;;;;;26.02;5.20;;;12.90;99.90;;;;;;5048301;28;20060;-58
2022/05/08 08:42:48;;;;;;;23.10;4.00;;;13.00;99.90;;;;;;5047567;28;20507;-59
2022/05/08 08:48:09;;;;;;;23.95;3.80;;;13.10;99.90;;;;;;5048668;28;20085;-57
2022/05/08 08:50:35;;;;;;;21.75;4.20;;;13.20;99.90;;;;;;5045527;28;20124;-58
2022/05/08 08:53:05;;;;;;;16.60;3.40;;;13.30;99.90;;;;;;5048540;28;20135;-57
2022/05/08 08:55:32;;;;;;;18.10;4.05;;;13.30;99.90;;;;;;5046924;28;20063;-55
2022/05/08 08:58:00;;;;;;;15.90;3.60;;;13.40;99.90;;;;;;5046946;28;20045;-58
2022/05/08 09:00:27;;;;;;;24.05;4.07;;;13.50;99.90;;;;;;5046048;28;20048;-58
2022/05/08 09:02:55;;;;;;;18.48;4.47;;;13.50;99.90;;;;;;5030046;28;20048;-58
2022/05/08 09:05:25;;;;;;;21.73;3.75;;;13.60;99.90;;;;;;5047846;28;20049;-60
2022/05/08 09:07:55;;;;;;;18.38;4.13;;;13.80;99.90;;;;;;5047595;28;20053;-60
2022/05/08 09:10:23;;;;;;;22.02;4.28;;;13.90;99.90;;;;;;5047404;28;20072;-59
2022/05/08 09:12:53;;;;;;;17.48;4.82;;;13.90;99.90;;;;;;5046618;28;20095;-57
2022/05/08 09:15:23;;;;;;;18.13;3.25;;;14.00;99.90;;;;;;5046039;28;20897;-59
2022/05/08 09:17:52;;;;;;;18.08;3.08;;;14.10;99.90;;;;;;5046064;28;20183;-58
2022/05/08 09:20:31;;;;;;;15.57;2.85;;;14.10;99.90;;;;;;5045172;28;20041;-58
2022/05/08 09:23:10;;;;;;;21.63;5.10;;;14.20;99.60;;;;;;5045446;28;20053;-55
2022/05/08 09:26:00;;;;;;;22.48;3.55;;;14.20;99.90;;;;;;5046004;28;20544;-58
2022/05/08 09:28:42;;;;;;;15.38;3.15;;;14.20;98.80;;;;;;5044079;28;20098;-57
2022/05/08 09:31:15;;;;;;;14.80;3.10;;;14.30;99.90;;;;;;5045796;28;20045;-58
2022/05/08 09:33:47;;;;;;;19.55;4.00;;;14.30;99.90;;;;;;5046443;28;20045;-57
2022/05/08 09:36:23;;;;;;;15.40;3.63;;;14.40;99.20;;;;;;5044235;28;20064;-57
2022/05/08 09:38:54;;;;;;;17.05;3.55;;;14.50;98.60;;;;;;5043987;28;20041;-57
2022/05/08 09:41:27;;;;;;;20.23;2.80;;;14.60;99.10;;;;;;5042649;28;20337;-54
2022/05/08 09:43:56;;;;;;;17.60;4.03;;;14.60;99.10;;;;;;5045068;28;20048;-60
2022/05/08 09:46:23;;;;;;;16.80;3.25;;;14.70;99.30;;;;;;5042936;28;20437;-55
2022/05/08 09:48:50;;;;;;;11.75;3.03;;;14.90;99.00;;;;;;5044430;28;20048;-57
2022/05/08 09:51:17;;;;;;;19.80;3.65;;;15.20;97.80;;;;;;5045201;28;20139;-57
2022/05/08 09:53:45;;;;;;;16.80;4.75;;;15.50;98.10;;;;;;5047628;28;20488;-58
2022/05/08 09:56:12;;;;;;;16.33;3.55;;;15.80;97.60;;;;;;5046963;28;20131;-58
2022/05/08 09:58:43;;;;;;;13.88;3.00;;;16.10;98.20;;;;;;5047184;28;20080;-58
2022/05/08 10:01:10;;;;;;;13.23;3.10;;;16.40;96.90;;;;;;5047028;28;20068;-57
2022/05/08 10:03:37;;;;;;;12.90;3.28;;;16.70;96.30;;;;;;5045747;28;20194;-58
2022/05/08 10:06:04;;;;;;;12.15;3.20;;;16.80;97.10;;;;;;5047099;28;20049;-58
2022/05/08 10:08:35;;;;;;;15.23;2.65;;;16.90;97.00;;;;;;5046478;28;20056;-57
2022/05/08 10:14:05;;;;;;;15.65;3.13;;;17.10;95.90;;;;;;5046979;28;20049;-58
2022/05/08 10:16:57;;;;;;;12.50;2.90;;;17.50;95.10;;;;;;5046857;28;20056;-58
2022/05/08 10:19:27;;;;;;;13.95;2.30;;;17.70;92.60;;;;;;5047073;28;20083;-58
2022/05/08 10:21:57;;;;;;;15.55;3.08;;;17.90;91.80;;;;;;5046990;28;20100;-58
2022/05/08 10:24:31;;;;;;;9.90;2.78;;;17.80;94.00;;;;;;5047549;28;20088;-58
2022/05/08 10:27:27;;;;;;;;;;;17.80;92.50;;;;;;5046575;28;20075;-58
2022/05/08 10:29:53;;;;;;;14.90;2.80;;;17.70;89.40;;;;;;5047360;28;19978;-57
2022/05/08 10:32:30;;;;;;;13.63;3.63;;;17.90;94.60;;;;;;5046809;28;20091;-58
2022/05/08 10:35:03;;;;;;;16.20;3.58;;;17.70;90.10;;;;;;5047055;28;20049;-59
2022/05/08 10:37:31;;;;;;;18.27;2.78;;;17.70;91.30;;;;;;5047225;28;20041;-58
2022/05/08 10:39:58;;;;;;;15.63;2.80;;;17.50;94.80;;;;;;5046489;28;20106;-59
2022/05/08 10:42:28;;;;;;;11.32;2.83;;;17.60;93.20;;;;;;5046428;28;20045;-56
2022/05/08 10:44:58;;;;;;;19.48;3.85;;;17.50;91.00;;;;;;5047047;28;20128;-57
2022/05/08 10:47:36;;;;;;;14.70;3.17;;;17.20;92.60;;;;;;5046878;28;20111;-58
2022/05/08 10:50:13;;;;;;;10.80;2.05;;;17.30;90.20;;;;;;5046926;28;20559;-56
2022/05/08 10:52:41;;;;;;;17.13;2.90;;;17.10;88.00;;;;;;5045644;28;20045;-57
2022/05/08 10:55:12;;;;;;;10.52;2.70;;;16.80;92.00;;;;;;5046404;28;20116;-56
2022/05/08 10:57:39;;;;;;;16.08;3.17;;;16.70;92.10;;;;;;5046517;28;20102;-58
2022/05/08 11:00:07;;;;;;;12.40;3.03;;;16.60;92.30;;;;;;5044651;28;20128;-55
2022/05/08 11:02:40;;;;;;;13.23;2.40;;;16.50;92.90;;;;;;5045623;28;20091;-57
2022/05/08 11:05:08;;;;;;;10.25;2.85;;;16.40;92.20;;;;;;5046761;28;20053;-58
2022/05/08 11:07:36;;;;;;;40.95;9.23;;;16.50;92.70;;;;;;5046785;28;20085;-58
2022/05/08 11:10:16;;;;;;;18.05;2.80;;;16.30;92.10;;;;;;5043207;28;20045;-58
2022/05/08 11:13:05;;;;;;;12.52;3.13;;;16.20;91.40;;;;;;5039978;28;20124;-59
2022/05/08 11:15:33;;;;;;;15.18;3.47;;;16.20;91.20;;;;;;5046595;28;20126;-57
2022/05/08 11:18:14;;;;;;;12.52;2.53;;;16.10;93.00;;;;;;5045512;28;20110;-58
2022/05/08 11:20:47;;;;;;;10.07;2.33;;;16.10;93.00;;;;;;5039259;28;20536;-59
2022/05/08 11:23:15;;;;;;;12.10;2.33;;;16.20;93.30;;;;;;5046577;28;20048;-58
2022/05/08 11:25:45;;;;;;;9.77;2.78;;;16.20;93.30;;;;;;5045173;28;20127;-56
2022/05/08 11:28:19;;;;;;;13.80;4.22;;;16.20;92.60;;;;;;5046279;28;20446;-58
2022/05/08 11:30:47;;;;;;;16.50;3.20;;;16.20;90.60;;;;;;5043039;28;20072;-58
2022/05/08 11:36:05;;;;;;;17.67;2.47;;;16.40;92.70;;;;;;5046748;28;20080;-58
2022/05/08 11:38:32;;;;;;;8.70;2.58;;;16.30;93.00;;;;;;5046260;28;20081;-58
2022/05/08 11:41:01;;;;;;;16.25;3.38;;;16.40;91.50;;;;;;5046055;28;20092;-59
2022/05/08 11:43:44;;;;;;;11.93;2.95;;;16.40;91.40;;;;;;5028356;28;20049;-56
2022/05/08 11:46:16;;;;;;;13.35;5.30;;;16.40;91.30;;;;;;5046692;28;20077;-57
2022/05/08 11:48:50;;;;;;;15.20;3.35;;;16.40;93.20;;;;;;5038516;28;20103;-57
2022/05/08 11:51:21;;;;;;;15.63;2.55;;;16.50;92.80;;;;;;5046868;28;20132;-58
2022/05/08 11:53:52;;;;;;;11.88;2.20;;;16.50;92.20;;;;;;5046090;28;20561;-59
2022/05/08 11:56:28;;;;;;;9.73;2.05;;;16.50;91.40;;;;;;5046208;28;20095;-58
2022/05/08 11:58:59;;;;;;;14.80;2.75;;;16.50;90.00;;;;;;5036938;28;20519;-57
2022/05/08 12:01:27;;;;;;;15.15;2.67;;;16.60;91.90;;;;;;5046618;28;20076;-55
2022/05/08 12:03:54;;;;;;;10.10;2.00;;;16.70;92.20;;;;;;5045881;28;20053;-55
2022/05/08 12:06:22;;;;;;;16.63;3.40;;;16.70;91.70;;;;;;5046602;28;20085;-59
2022/05/08 12:08:52;;;;;;;11.30;2.22;;;16.60;91.60;;;;;;5044992;28;20045;-58
2022/05/08 12:11:30;;;;;;;10.73;2.45;;;16.70;92.00;;;;;;5044383;28;20492;-58
2022/05/08 12:14:06;;;;;;;9.25;2.53;;;16.90;90.50;;;;;;5046054;28;20053;-59
2022/05/08 12:16:34;;;;;;;8.43;2.28;;;17.00;91.30;;;;;;5045984;28;20118;-57
2022/05/08 12:19:09;;;;;;;15.95;2.35;;;16.90;91.80;;;;;;5046154;28;20064;-58
2022/05/08 12:21:35;;;;;;;11.43;2.88;;;16.90;89.90;;;;;;5046096;28;20120;-58
2022/05/08 12:24:14;;;;;;;8.68;2.08;;;16.90;91.40;;;;;;5045833;28;20491;-59
2022/05/08 12:26:41;;;;;;;17.38;2.63;;;17.00;89.90;;;;;;5046034;28;20047;-58
2022/05/08 12:29:15;;;;;;;11.30;2.78;;;17.10;91.70;;;;;;5044201;28;20095;-56
2022/05/08 12:31:43;;;;;;;14.25;3.15;;;17.10;88.50;;;;;;5043958;28;20041;-59
2022/05/08 12:34:11;;;;;;;9.55;2.33;;;17.10;91.70;;;;;;5048367;28;20524;-57
2022/05/08 12:36:39;;;;;;;12.60;2.10;;;17.10;91.40;;;;;;5048191;28;20041;-57
2022/05/08 12:39:09;;;;;;;14.95;2.47;;;17.20;91.20;;;;;;5049130;28;20518;-59
2022/05/08 12:41:37;;;;;;;14.80;2.67;;;17.30;90.70;;;;;;5046793;28;20564;-57
2022/05/08 12:44:04;;;;;;;11.20;2.42;;;17.30;90.70;;;;;;5049714;28;20049;-58
2022/05/08 12:46:32;;;;;;;15.27;3.70;;;17.40;91.20;;;;;;5048061;28;20045;-55
2022/05/08 12:49:04;;;;;;;6.40;1.95;;;17.40;91.20;;;;;;5048097;28;20126;-56
2022/05/08 12:51:32;;;;;;;11.27;2.17;;;17.40;90.50;;;;;;5048974;28;20047;-58
2022/05/08 12:54:02;;;;;;;10.95;2.33;;;17.50;90.40;;;;;;5049456;28;20101;-58
2022/05/08 12:56:30;;;;;;;13.10;2.35;;;17.60;90.80;;;;;;5046671;28;20527;-60
2022/05/08 13:01:43;;;;;;;11.90;2.35;;;17.60;90.10;;;;;;5048926;28;20049;-58
2022/05/08 13:04:10;;;;;;;8.38;1.75;;;17.50;90.60;;;;;;5049243;28;20242;-59
2022/05/08 13:06:37;;;;;;;10.43;2.70;;;17.60;90.70;;;;;;5048656;28;20122;-59
2022/05/08 13:09:06;;;;;;;8.80;2.25;;;17.70;90.90;;;;;;5048011;28;20123;-57
2022/05/08 13:11:34;;;;;;;12.18;1.90;;;17.90;89.80;;;;;;5048213;28;20094;-58
2022/05/08 13:14:04;;;;;;;6.90;2.33;;;17.80;86.50;;;;;;5048462;28;20441;-58
2022/05/08 13:16:31;;;;;;;12.43;1.92;;;17.90;89.00;;;;;;5048777;28;20140;-60
2022/05/08 13:18:58;;;;;;;14.48;2.53;;;18.00;89.40;;;;;;5048658;28;20483;-57